Time;durP1;ratioP1;P1;durP2;ratioP2;P2;SDS_P1;SDS_P2;PMS_P1;PMS_P2;Temp;Humidity;BMP_temperature;BMP_pressure;BME280_temperature;BME280_humidity;BME280_pressure;Samples;Min_cycle;Max_cycle;Signal;HPM_P1;HPM_P2
2022/01/08 00:01:09;;;;;;;2.20;2.00;;;1.80;99.90;;;2.67;100.00;97347.50;4993689;28;20566;-76
2022/01/08 00:03:41;;;;;;;2.40;2.07;;;1.90;99.90;;;2.67;100.00;97346.69;4988911;28;20533;-76
2022/01/08 00:06:12;;;;;;;2.97;2.27;;;2.00;99.90;;;2.64;100.00;97347.00;4986605;28;20513;-76
2022/01/08 00:08:42;;;;;;;2.50;2.30;;;1.90;99.90;;;2.65;100.00;97335.69;4988719;28;20467;-76
2022/01/08 00:11:17;;;;;;;2.77;2.30;;;1.90;99.90;;;2.64;100.00;97328.94;4984464;28;20463;-77
2022/01/08 00:13:48;;;;;;;2.63;2.40;;;1.90;99.90;;;2.63;100.00;97319.56;4990624;28;20830;-76
2022/01/08 00:16:17;;;;;;;2.47;2.27;;;1.80;99.90;;;2.52;100.00;97318.06;4998884;28;20939;-76
2022/01/08 00:18:48;;;;;;;2.63;2.43;;;1.60;99.90;;;2.54;100.00;97316.94;4990403;28;20465;-77
2022/01/08 00:21:18;;;;;;;5.23;2.37;;;1.70;99.90;;;2.59;100.00;97308.75;4972148;28;20482;-76
2022/01/08 00:23:47;;;;;;;3.03;2.33;;;1.80;99.90;;;2.59;100.00;97313.91;4982347;28;20494;-76
2022/01/08 00:26:17;;;;;;;3.50;1.90;;;1.70;99.90;;;2.62;100.00;97305.84;4989920;28;20464;-77
2022/01/08 00:28:46;;;;;;;2.87;2.57;;;1.80;99.90;;;2.57;100.00;97296.97;4991458;28;20873;-77
2022/01/08 00:31:16;;;;;;;2.80;2.07;;;1.80;99.90;;;2.59;100.00;97292.44;4979779;28;20463;-77
2022/01/08 00:33:48;;;;;;;2.60;2.40;;;1.80;99.90;;;2.59;100.00;97289.88;4989834;28;21065;-77
2022/01/08 00:36:17;;;;;;;2.60;2.40;;;1.90;99.90;;;2.58;100.00;97289.06;4987087;28;20496;-76
2022/01/08 00:38:47;;;;;;;2.20;2.00;;;1.80;99.90;;;2.59;100.00;97292.44;4987345;28;20464;-77
2022/01/08 00:41:17;;;;;;;2.80;2.60;;;1.80;99.90;;;2.58;100.00;97288.25;4987112;28;20463;-77
2022/01/08 00:43:47;;;;;;;2.80;2.60;;;1.80;99.90;;;2.57;100.00;97284.06;4986679;28;20855;-77
2022/01/08 00:46:16;;;;;;;2.00;1.87;;;1.80;99.90;;;2.56;100.00;97288.41;4993182;28;21027;-76
2022/01/08 00:48:45;;;;;;;3.20;2.60;;;1.70;99.90;;;2.57;100.00;97278.91;4991586;28;20467;-77
2022/01/08 00:51:16;;;;;;;4.70;2.63;;;1.80;99.90;;;2.58;100.00;97281.31;4992597;28;20815;-77
2022/01/08 00:53:46;;;;;;;2.13;1.90;;;1.80;99.90;;;2.58;100.00;97281.31;4990049;28;20877;-76
2022/01/08 00:56:16;;;;;;;3.40;2.53;;;1.80;99.90;;;2.59;100.00;97272.63;4992314;28;20470;-77
2022/01/08 00:58:46;;;;;;;3.43;2.73;;;1.80;99.90;;;2.61;100.00;97270.69;4987774;28;20474;-77
2022/01/08 01:01:15;;;;;;;3.97;2.87;;;1.80;99.90;;;2.60;100.00;97273.44;4987819;28;20958;-77
2022/01/08 01:03:44;;;;;;;3.10;2.80;;;1.80;99.90;;;2.62;100.00;97276.66;4987143;28;20463;-77
2022/01/08 01:06:17;;;;;;;3.30;2.70;;;1.80;99.90;;;2.61;100.00;97280.19;4987529;28;20484;-77
2022/01/08 01:08:47;;;;;;;2.67;2.47;;;1.80;99.90;;;2.59;100.00;97282.13;4986550;28;20510;-77
2022/01/08 01:11:17;;;;;;;4.67;3.03;;;1.70;99.90;;;2.58;100.00;97276.16;4993201;28;20463;-77
2022/01/08 01:13:47;;;;;;;2.60;2.33;;;1.70;99.90;;;2.59;100.00;97274.38;4985107;28;20796;-77
2022/01/08 01:16:18;;;;;;;3.93;3.10;;;1.80;99.90;;;2.62;100.00;97279.22;4984818;28;20467;-77
2022/01/08 01:18:49;;;;;;;5.07;2.80;;;1.80;99.90;;;2.62;100.00;97281.81;4986982;28;20451;-77
2022/01/08 01:21:21;;;;;;;3.63;3.03;;;1.80;99.90;;;2.64;100.00;97282.47;4991223;28;20553;-77
2022/01/08 01:23:52;;;;;;;9.57;3.70;;;1.90;99.90;;;2.66;100.00;97283.13;4987290;28;20466;-76
2022/01/08 01:26:25;;;;;;;4.43;3.23;;;1.90;99.90;;;2.67;100.00;97282.97;4989368;28;20483;-77
2022/01/08 01:29:00;;;;;;;5.40;4.27;;;1.90;99.90;;;2.66;100.00;97288.28;4996185;28;20454;-78
2022/01/08 01:42:55;;;;;;;3.27;1.70;;;2.00;99.90;;;2.58;100.00;97311.47;4989034;28;20478;-77
2022/01/08 01:48:14;;;;;;;1.83;1.63;;;2.00;99.90;;;2.59;100.00;97328.56;4985084;28;20711;-77
2022/01/08 01:50:44;;;;;;;2.03;1.57;;;2.00;99.90;;;2.61;100.00;97326.63;4983689;28;20959;-77
2022/01/08 01:53:15;;;;;;;1.70;1.60;;;1.90;99.90;;;2.63;100.00;97322.16;4988154;28;20839;-77
2022/01/08 01:55:48;;;;;;;1.67;1.47;;;1.90;99.90;;;2.61;100.00;97331.81;4984774;28;21248;-77
2022/01/08 01:58:18;;;;;;;2.07;1.60;;;1.90;99.90;;;2.63;100.00;97325.53;4987531;28;20677;-77
2022/01/08 02:00:51;;;;;;;6.10;2.20;;;1.90;99.90;;;2.65;100.00;97327.94;4986081;28;20577;-78
2022/01/08 02:03:21;;;;;;;2.87;2.40;;;1.90;99.90;;;2.65;100.00;97328.75;4987018;28;20520;-77
2022/01/08 02:05:51;;;;;;;3.10;2.80;;;1.90;99.90;;;2.64;100.00;97347.78;4993089;28;20512;-77
2022/01/08 02:08:22;;;;;;;2.30;2.10;;;2.00;99.90;;;2.60;100.00;97348.25;4985735;28;20559;-77
2022/01/08 02:10:53;;;;;;;6.40;1.80;;;2.10;99.90;;;2.50;100.00;97356.91;4993225;28;20917;-78
2022/01/08 02:13:23;;;;;;;2.63;1.83;;;2.00;99.90;;;2.53;100.00;97355.81;4994932;28;20880;-77
2022/01/08 02:15:55;;;;;;;2.10;1.83;;;1.90;99.90;;;2.58;100.00;97366.47;4983738;28;20470;-78
2022/01/08 02:18:26;;;;;;;1.23;1.10;;;1.90;99.90;;;2.57;100.00;97367.44;4988499;28;20926;-78
2022/01/08 02:20:59;;;;;;;0.80;0.80;;;2.00;99.90;;;2.60;100.00;97361.16;4989753;28;20862;-78
2022/01/08 02:23:31;;;;;;;0.80;0.80;;;1.90;99.90;;;2.61;100.00;97358.41;4986964;28;21065;-77
2022/01/08 02:26:05;;;;;;;1.00;0.70;;;2.00;99.90;;;2.62;100.00;97356.66;4987179;28;20588;-77
2022/01/08 02:28:36;;;;;;;0.90;0.80;;;2.10;99.90;;;2.63;100.00;97372.00;4994323;28;20459;-77
2022/01/08 02:31:05;;;;;;;0.70;0.70;;;2.10;99.90;;;2.54;100.00;97381.44;4990417;28;20487;-77
2022/01/08 02:33:37;;;;;;;1.20;0.70;;;1.90;99.90;;;2.55;100.00;97379.69;4994682;28;21045;-77
2022/01/08 02:36:08;;;;;;;0.67;0.67;;;2.00;99.90;;;2.54;100.00;97384.03;4994276;28;20964;-77
2022/01/08 02:38:38;;;;;;;0.60;0.60;;;2.00;99.90;;;2.50;100.00;97382.72;4985570;28;20470;-78
2022/01/08 02:41:08;;;;;;;0.70;0.60;;;2.00;99.90;;;2.51;100.00;97388.69;4990165;28;20468;-78
2022/01/08 02:43:44;;;;;;;0.70;0.70;;;2.00;99.90;;;2.48;100.00;97389.81;4990961;28;20479;-78
2022/01/08 02:46:13;;;;;;;0.70;0.70;;;1.90;99.90;;;2.55;100.00;97397.75;4987882;28;20518;-78
2022/01/08 02:48:43;;;;;;;0.67;0.67;;;2.00;99.90;;;2.53;100.00;97387.56;4996286;28;20471;-77
2022/01/08 02:51:14;;;;;;;0.70;0.70;;;2.00;99.90;;;2.47;100.00;97384.78;4991807;28;20463;-78
2022/01/08 02:53:43;;;;;;;4.10;1.17;;;1.90;99.90;;;2.49;100.00;97394.00;4995431;28;20475;-78
2022/01/08 02:56:14;;;;;;;0.77;0.77;;;2.00;99.90;;;2.46;100.00;97391.72;4987532;28;20480;-78
2022/01/08 02:58:43;;;;;;;12.63;7.40;;;1.90;99.90;;;2.48;100.00;97394.97;4985035;28;21085;-80
2022/01/08 03:01:12;;;;;;;4.83;2.30;;;1.90;99.90;;;2.44;100.00;97403.97;4984710;28;20900;-77
2022/01/08 03:03:43;;;;;;;1.20;1.00;;;1.90;99.90;;;2.47;100.00;97405.44;4990940;28;20470;-77
2022/01/08 03:06:16;;;;;;;0.90;0.80;;;1.90;99.90;;;2.50;100.00;97405.94;4991022;28;20497;-77
2022/01/08 03:08:47;;;;;;;0.80;0.80;;;1.90;99.90;;;2.47;100.00;97408.81;4988718;28;20463;-77
2022/01/08 03:11:16;;;;;;;0.90;0.90;;;1.90;99.90;;;2.50;100.00;97415.44;4987601;28;20529;-78
2022/01/08 03:13:44;;;;;;;0.80;0.80;;;1.90;99.90;;;2.51;100.00;97415.31;4991379;28;21081;-77
2022/01/08 03:16:17;;;;;;;0.70;0.70;;;2.00;99.90;;;2.52;100.00;97422.09;4995554;28;20546;-77
2022/01/08 03:18:49;;;;;;;1.67;0.77;;;1.90;99.90;;;2.53;100.00;97426.25;4990302;28;20911;-76
2022/01/08 03:21:22;;;;;;;0.87;0.80;;;1.90;99.90;;;2.54;100.00;97430.47;4992860;28;20948;-77
2022/01/08 03:23:57;;;;;;;0.73;0.70;;;1.90;99.90;;;2.48;100.00;97436.25;4989858;28;20936;-77
2022/01/08 03:26:30;;;;;;;0.70;0.70;;;1.80;99.90;;;2.48;100.00;97445.75;4997539;28;20505;-77
2022/01/08 03:29:00;;;;;;;1.13;1.00;;;1.90;99.90;;;2.49;100.00;97450.78;4996850;28;20460;-76
2022/01/08 03:31:29;;;;;;;0.70;0.70;;;1.90;99.90;;;2.50;100.00;97454.97;4986941;28;20462;-77
2022/01/08 03:33:59;;;;;;;1.30;0.80;;;1.90;99.90;;;2.48;100.00;97462.03;4996168;28;20523;-77
2022/01/08 03:36:31;;;;;;;1.63;0.70;;;1.90;99.90;;;2.49;100.00;97474.00;4988450;28;20478;-77
2022/01/08 03:39:01;;;;;;;0.60;0.60;;;1.90;99.90;;;2.44;100.00;97481.38;4980730;28;20586;-77
2022/01/08 03:41:30;;;;;;;1.77;0.70;;;1.70;99.90;;;2.47;100.00;97485.41;4998074;28;20819;-77
2022/01/08 03:44:00;;;;;;;0.60;0.60;;;1.80;99.90;;;2.47;100.00;97486.22;4989837;28;24569;-77
2022/01/08 03:46:33;;;;;;;2.10;0.70;;;1.80;99.90;;;2.48;100.00;97495.59;4991024;28;20498;-77
2022/01/08 03:49:23;;;;;;;0.70;0.70;;;1.70;99.90;;;2.48;100.00;97508.50;4990518;28;20588;-77
2022/01/08 03:51:56;;;;;;;0.73;0.73;;;1.70;99.90;;;2.49;100.00;97510.13;4991661;28;20485;-77
2022/01/08 03:54:25;;;;;;;1.00;0.70;;;1.80;99.90;;;2.48;100.00;97512.84;4991102;28;20522;-77
2022/01/08 03:56:55;;;;;;;1.07;0.80;;;1.80;99.90;;;2.51;100.00;97523.66;4991074;28;20469;-78
2022/01/08 03:59:25;;;;;;;0.60;0.60;;;1.90;99.90;;;2.50;100.00;97534.94;4993623;28;20548;-77
2022/01/08 04:01:55;;;;;;;2.20;0.80;;;1.90;99.90;;;2.46;100.00;97523.28;4982028;28;20469;-77
2022/01/08 04:04:24;;;;;;;1.10;0.80;;;1.80;99.90;;;2.49;100.00;97525.59;4992666;28;20523;-78
2022/01/08 04:06:56;;;;;;;0.80;0.77;;;1.80;99.90;;;2.48;100.00;97539.44;4985323;28;20604;-77
2022/01/08 04:09:26;;;;;;;0.80;0.80;;;1.80;99.90;;;2.51;100.00;97539.16;4988444;28;20480;-78
2022/01/08 04:11:56;;;;;;;0.80;0.80;;;1.90;99.90;;;2.54;100.00;97554.31;4984600;28;20525;-77
2022/01/08 04:14:35;;;;;;;2.00;1.37;;;1.90;99.90;;;2.52;100.00;97556.25;4978720;28;20543;-77
2022/01/08 04:17:05;;;;;;;2.50;1.10;;;1.90;99.90;;;2.54;100.00;97554.31;4988655;28;20474;-78
2022/01/08 04:19:35;;;;;;;1.27;1.10;;;1.90;99.90;;;2.57;100.00;97567.91;4983970;28;20462;-77
2022/01/08 04:22:12;;;;;;;1.10;1.00;;;1.90;99.90;;;2.60;100.00;97570.19;4988824;28;20498;-78
2022/01/08 04:24:43;;;;;;;5.57;1.20;;;1.90;99.90;;;2.58;100.00;97580.66;4990007;28;20505;-78
2022/01/08 04:27:13;;;;;;;4.40;1.50;;;1.90;99.90;;;2.54;100.00;97589.63;4986045;28;21043;-78
2022/01/08 04:29:43;;;;;;;3.00;1.23;;;1.90;99.90;;;2.58;100.00;97590.16;4989829;28;20470;-78
2022/01/08 04:32:14;;;;;;;3.57;1.50;;;2.00;99.90;;;2.59;100.00;97597.75;4989283;28;20466;-78
2022/01/08 04:34:44;;;;;;;2.20;1.20;;;2.00;99.90;;;2.57;100.00;97599.66;4990523;28;20460;-78
2022/01/08 04:37:16;;;;;;;4.00;1.20;;;2.00;99.90;;;2.56;100.00;97610.16;4985358;28;20512;-77
2022/01/08 04:39:46;;;;;;;4.00;1.60;;;2.00;99.90;;;2.55;100.00;97619.66;4986178;28;20488;-77
2022/01/08 04:42:15;;;;;;;2.93;1.50;;;2.10;99.90;;;2.58;100.00;97618.53;4987632;28;20467;-79
2022/01/08 04:44:45;;;;;;;1.53;1.20;;;2.00;99.90;;;2.57;100.00;97624.69;4990656;28;20465;-76
2022/01/08 04:47:15;;;;;;;2.40;1.57;;;2.00;99.90;;;2.61;100.00;97629.38;4987533;28;20537;-78
2022/01/08 04:49:45;;;;;;;1.30;1.10;;;2.00;99.90;;;2.63;100.00;97631.81;4984208;28;20979;-78
2022/01/08 04:52:18;;;;;;;10.33;4.40;;;2.10;99.90;;;2.61;100.00;97636.31;4983957;28;20461;-76
2022/01/08 04:54:49;;;;;;;1.93;1.43;;;2.00;99.90;;;2.63;100.00;97645.53;4980847;28;20809;-75
2022/01/08 04:57:19;;;;;;;30.07;12.80;;;2.00;99.90;;;2.63;100.00;97652.47;4983419;28;21005;-79
2022/01/08 04:59:49;;;;;;;3.03;2.17;;;2.00;99.90;;;2.65;100.00;97658.28;4985926;28;20988;-75
2022/01/08 05:02:19;;;;;;;1.50;1.40;;;2.10;99.90;;;2.64;100.00;97656.69;4982420;28;20477;-75
2022/01/08 05:04:49;;;;;;;4.90;1.70;;;2.10;99.90;;;2.61;100.00;97646.63;4985115;28;20470;-75
2022/01/08 05:07:21;;;;;;;4.17;1.47;;;2.10;99.90;;;2.62;100.00;97656.00;4993326;28;20494;-75
2022/01/08 05:09:51;;;;;;;3.03;1.30;;;2.20;99.90;;;2.62;100.00;97659.41;4990105;28;20497;-75
2022/01/08 05:12:21;;;;;;;1.90;1.20;;;2.10;99.90;;;2.65;100.00;97663.44;4981004;28;20891;-75
2022/01/08 05:14:51;;;;;;;12.70;3.83;;;2.10;99.90;;;2.63;100.00;97655.88;4982507;28;20485;-77
2022/01/08 05:17:27;;;;;;;9.20;2.83;;;2.10;99.90;;;2.61;100.00;97667.28;4993864;28;20471;-75
2022/01/08 05:20:00;;;;;;;3.87;1.73;;;2.10;99.90;;;2.62;100.00;97668.91;4985399;28;20487;-75
2022/01/08 05:22:41;;;;;;;6.90;1.27;;;2.00;99.90;;;2.59;100.00;97657.09;4988670;28;20495;-75
2022/01/08 05:25:12;;;;;;;2.00;1.80;;;1.90;99.90;;;2.61;100.00;97669.84;4996929;28;20462;-75
2022/01/08 05:27:42;;;;;;;4.53;1.50;;;1.90;99.90;;;2.59;100.00;97664.03;4982556;28;21012;-75
2022/01/08 05:30:13;;;;;;;5.13;1.10;;;2.00;99.90;;;2.57;100.00;97676.28;4986266;28;20473;-75
2022/01/08 05:32:44;;;;;;;20.03;10.70;;;2.00;99.90;;;2.49;100.00;97685.56;4987926;28;20462;-75
2022/01/08 05:35:13;;;;;;;6.13;4.63;;;1.90;99.90;;;2.50;100.00;97687.16;4983428;28;20851;-76
2022/01/08 05:37:45;;;;;;;2.03;1.40;;;1.90;99.90;;;2.41;100.00;97700.94;4984661;28;20455;-75
2022/01/08 05:40:15;;;;;;;3.70;1.50;;;1.70;99.90;;;2.42;100.00;97705.16;4989920;28;20465;-74
2022/01/08 05:42:45;;;;;;;1.43;1.33;;;1.70;99.90;;;2.38;100.00;97706.41;5002652;28;20886;-74
2022/01/08 05:45:14;;;;;;;13.27;1.80;;;1.70;99.90;;;2.38;100.00;97713.31;4992946;28;20537;-74
2022/01/08 05:47:44;;;;;;;3.40;1.40;;;1.70;99.90;;;2.28;100.00;97725.47;4992928;28;20539;-74
2022/01/08 05:50:13;;;;;;;4.30;1.37;;;1.60;99.90;;;2.25;100.00;97726.56;4996544;28;20880;-74
2022/01/08 05:52:45;;;;;;;5.07;2.30;;;1.50;99.90;;;2.20;100.00;97733.09;4984114;28;20457;-74
2022/01/08 05:55:15;;;;;;;4.50;1.80;;;1.40;99.90;;;2.17;100.00;97752.25;5001163;28;20447;-74
2022/01/08 05:57:45;;;;;;;2.17;1.40;;;1.40;99.90;;;2.13;100.00;97768.94;4990309;28;20544;-74
2022/01/08 06:00:15;;;;;;;2.63;1.20;;;1.40;99.90;;;2.06;100.00;97759.34;4996792;28;20458;-74
2022/01/08 06:02:45;;;;;;;1.73;1.43;;;1.40;99.90;;;2.11;100.00;97773.44;4992393;28;20450;-74
2022/01/08 06:05:16;;;;;;;9.43;2.27;;;1.50;99.90;;;2.13;100.00;97781.84;5004005;28;20536;-74
2022/01/08 06:07:45;;;;;;;4.43;1.70;;;1.50;99.90;;;2.17;100.00;97783.19;4996855;28;20563;-74
2022/01/08 06:10:15;;;;;;;9.87;2.10;;;1.60;99.90;;;2.20;100.00;97788.06;4989320;28;20455;-74
2022/01/08 06:12:46;;;;;;;3.93;1.50;;;1.50;99.90;;;2.19;100.00;97781.28;4978421;28;20467;-74
2022/01/08 06:15:17;;;;;;;3.30;1.63;;;1.60;99.90;;;2.18;100.00;97784.81;4977832;28;20500;-74
2022/01/08 06:17:47;;;;;;;4.00;1.40;;;1.60;99.90;;;2.14;100.00;97790.41;4983244;28;20497;-74
2022/01/08 06:20:17;;;;;;;2.50;1.73;;;1.50;99.90;;;2.04;100.00;97787.84;4991804;28;20462;-74
2022/01/08 06:22:49;;;;;;;4.50;1.70;;;1.40;99.90;;;1.94;100.00;97781.91;4994214;28;20479;-74
2022/01/08 06:25:20;;;;;;;3.80;1.80;;;1.20;99.90;;;1.96;100.00;97780.00;4993919;28;20921;-74
2022/01/08 06:27:49;;;;;;;3.90;1.67;;;1.20;99.90;;;1.90;100.00;97780.56;4993830;28;20910;-74
2022/01/08 06:30:18;;;;;;;2.90;1.77;;;1.20;99.90;;;1.90;100.00;97786.53;4993695;28;20508;-74
2022/01/08 06:32:47;;;;;;;4.77;2.17;;;1.20;99.90;;;1.85;100.00;97783.53;4993597;28;20457;-73
2022/01/08 06:35:16;;;;;;;6.10;2.70;;;1.20;99.90;;;1.85;100.00;97782.72;4993986;28;20977;-74
2022/01/08 06:37:48;;;;;;;4.33;1.90;;;1.10;99.90;;;1.81;100.00;97786.53;4992675;28;20493;-74
2022/01/08 06:40:18;;;;;;;2.80;1.80;;;1.00;99.90;;;1.81;100.00;97787.34;4993012;28;20960;-74
2022/01/08 06:42:47;;;;;;;4.73;2.20;;;1.10;99.90;;;1.78;100.00;97791.97;4994022;28;20476;-74
2022/01/08 06:45:17;;;;;;;2.80;2.00;;;1.00;99.90;;;1.76;100.00;97793.88;4993071;28;20458;-74
2022/01/08 06:47:47;;;;;;;3.20;1.97;;;1.00;99.90;;;1.70;100.00;97799.59;4994291;28;20528;-74
2022/01/08 06:50:17;;;;;;;10.10;2.20;;;1.00;99.90;;;1.75;100.00;97803.38;4990464;28;20454;-73
2022/01/08 06:52:48;;;;;;;3.70;2.13;;;1.00;99.90;;;1.79;100.00;97817.63;4993307;28;20481;-74
2022/01/08 06:55:19;;;;;;;2.90;2.20;;;1.10;99.90;;;1.84;100.00;97817.22;4992857;28;20458;-74
2022/01/08 06:57:49;;;;;;;3.23;2.10;;;1.20;99.90;;;1.79;100.00;97821.94;4993903;28;20455;-74
2022/01/08 07:00:19;;;;;;;6.80;2.37;;;1.00;99.90;;;1.71;100.00;97821.81;4993240;28;20513;-73
2022/01/08 07:02:50;;;;;;;5.03;2.23;;;0.90;99.90;;;1.67;100.00;97841.88;4993076;28;20469;-74
2022/01/08 07:05:21;;;;;;;3.30;1.70;;;0.90;99.90;;;1.70;100.00;97836.47;4988880;28;20494;-74
2022/01/08 07:07:53;;;;;;;5.67;2.33;;;1.00;99.90;;;1.74;100.00;97839.56;4993559;28;20492;-73
2022/01/08 07:10:24;;;;;;;3.30;2.20;;;1.00;99.90;;;1.71;100.00;97850.16;4988104;28;20512;-74
2022/01/08 07:12:54;;;;;;;5.90;2.50;;;1.00;99.90;;;1.64;100.00;97854.22;4992695;28;20811;-74
2022/01/08 07:15:25;;;;;;;6.10;2.10;;;0.90;99.90;;;1.61;100.00;97868.22;4993413;28;20987;-74
2022/01/08 07:17:55;;;;;;;5.23;2.00;;;0.90;99.90;;;1.57;100.00;97866.84;4990670;28;20981;-74
2022/01/08 07:20:26;;;;;;;3.67;2.13;;;0.80;99.90;;;1.56;100.00;97864.41;4993249;28;20452;-74
2022/01/08 07:22:59;;;;;;;13.60;2.33;;;0.80;99.90;;;1.60;100.00;97868.34;4990736;28;20516;-74
2022/01/08 07:25:29;;;;;;;3.43;2.50;;;0.80;99.90;;;1.63;100.00;97873.25;4993681;28;20479;-73
2022/01/08 07:27:59;;;;;;;3.90;2.10;;;0.90;99.90;;;1.63;100.00;97875.81;4992927;28;20496;-74
2022/01/08 07:30:29;;;;;;;4.73;2.20;;;0.90;99.90;;;1.64;100.00;97885.16;4993187;28;20896;-74
2022/01/08 07:32:59;;;;;;;4.80;2.20;;;0.90;99.90;;;1.55;100.00;97885.97;4986054;28;20450;-74
2022/01/08 07:35:29;;;;;;;6.93;2.17;;;0.70;99.90;;;1.49;100.00;97901.00;4981437;28;20469;-74
2022/01/08 07:38:01;;;;;;;10.83;2.57;;;0.70;99.90;;;1.46;100.00;97901.28;4982123;28;20961;-74
2022/01/08 07:40:31;;;;;;;5.80;2.30;;;0.60;99.90;;;1.44;100.00;97900.59;4977885;28;20452;-74
2022/01/08 07:43:01;;;;;;;3.13;2.53;;;0.70;99.90;;;1.47;100.00;97908.06;4979498;28;20456;-74
2022/01/08 07:45:31;;;;;;;11.80;3.00;;;0.90;99.90;;;1.46;100.00;97911.56;4980810;28;20459;-74
2022/01/08 07:48:02;;;;;;;8.20;3.03;;;0.70;99.90;;;1.51;100.00;97903.47;4980997;28;20524;-74
2022/01/08 07:50:32;;;;;;;3.57;2.80;;;0.80;99.90;;;1.50;100.00;97907.78;4982560;28;20859;-73
2022/01/08 07:53:04;;;;;;;6.70;2.97;;;0.70;99.90;;;1.50;100.00;97900.06;4975071;28;20534;-73
2022/01/08 07:55:35;;;;;;;5.03;2.50;;;0.70;99.90;;;1.51;100.00;97900.88;4975987;28;20461;-74
2022/01/08 07:58:05;;;;;;;7.73;2.77;;;0.70;99.90;;;1.45;100.00;97909.16;4976909;28;20929;-74
2022/01/08 08:00:34;;;;;;;4.20;2.93;;;0.70;99.90;;;1.42;100.00;97917.16;4978309;28;20865;-73
2022/01/08 08:03:03;;;;;;;3.63;2.37;;;0.60;99.90;;;1.42;100.00;97914.56;4976132;28;20997;-74
2022/01/08 08:05:35;;;;;;;4.80;3.20;;;0.60;99.90;;;1.46;100.00;97915.91;4977347;28;20462;-74
2022/01/08 08:08:08;;;;;;;4.40;3.00;;;0.60;99.90;;;1.42;100.00;97925.66;4976933;28;20520;-74
2022/01/08 08:10:39;;;;;;;11.10;3.10;;;0.60;99.90;;;1.39;100.00;97922.53;4977397;28;20500;-73
2022/01/08 08:13:12;;;;;;;5.97;2.70;;;0.50;99.90;;;1.34;100.00;97922.97;4977995;28;20465;-74
2022/01/08 08:15:42;;;;;;;14.93;4.00;;;0.50;99.90;;;1.35;100.00;97919.44;4978581;28;21028;-74
2022/01/08 08:18:13;;;;;;;4.30;2.97;;;0.50;99.90;;;1.33;100.00;97926.47;4991861;28;20473;-74
2022/01/08 08:20:52;;;;;;;5.80;3.17;;;0.50;99.90;;;1.31;100.00;97930.13;4991883;28;20961;-74
2022/01/08 08:23:23;;;;;;;10.57;3.03;;;0.50;99.90;;;1.29;100.00;97932.81;4989327;28;20875;-74
2022/01/08 08:25:54;;;;;;;4.63;3.00;;;0.50;99.90;;;1.28;100.00;97938.13;4992961;28;21237;-74
2022/01/08 08:28:25;;;;;;;4.10;3.10;;;0.50;99.90;;;1.28;100.00;97953.56;4991326;28;20865;-74
2022/01/08 08:30:56;;;;;;;8.40;3.30;;;0.40;99.90;;;1.29;100.00;97944.88;4991703;28;20464;-74
2022/01/08 08:33:25;;;;;;;3.40;2.87;;;0.40;99.90;;;1.33;100.00;97941.09;4991775;28;20986;-74
2022/01/08 08:35:56;;;;;;;7.97;3.13;;;0.50;99.90;;;1.39;100.00;97938.00;4991783;28;20448;-74
2022/01/08 08:38:27;;;;;;;3.50;3.13;;;0.60;99.90;;;1.40;100.00;97940.44;4990494;28;20459;-74
2022/01/08 08:40:57;;;;;;;4.70;3.00;;;0.60;99.90;;;1.44;100.00;97933.28;4991354;28;20472;-74
2022/01/08 08:43:26;;;;;;;5.57;3.03;;;0.70;99.90;;;1.49;100.00;97934.50;4991278;28;20459;-74
2022/01/08 08:45:57;;;;;;;10.00;3.70;;;0.80;99.90;;;1.56;100.00;97933.97;4988431;28;21514;-74
2022/01/08 08:48:26;;;;;;;4.17;2.60;;;0.90;99.90;;;1.56;100.00;97939.13;4991721;28;20475;-73
2022/01/08 08:50:56;;;;;;;4.97;3.40;;;0.90;99.90;;;1.61;100.00;97934.38;4988690;28;20942;-73
2022/01/08 08:53:28;;;;;;;6.00;3.20;;;0.90;99.90;;;1.65;100.00;97935.75;4991009;28;20448;-73
2022/01/08 08:55:59;;;;;;;5.77;3.30;;;1.00;99.90;;;1.70;100.00;97943.91;4991071;28;20454;-74
2022/01/08 08:58:30;;;;;;;6.67;3.43;;;1.00;99.90;;;1.70;100.00;97938.75;4992181;28;20449;-74
2022/01/08 09:01:01;;;;;;;6.97;3.50;;;0.90;99.90;;;1.73;100.00;97928.16;4991648;28;20470;-73
2022/01/08 09:03:31;;;;;;;5.77;3.77;;;1.00;99.90;;;1.78;100.00;97938.88;4988029;28;20447;-73
2022/01/08 09:06:02;;;;;;;5.67;3.27;;;1.10;99.90;;;1.84;100.00;97938.34;4991759;28;20446;-74
2022/01/08 09:08:34;;;;;;;6.67;3.73;;;1.10;99.90;;;1.87;100.00;97932.94;4987080;28;20957;-73
2022/01/08 09:11:04;;;;;;;6.53;3.57;;;1.10;99.90;;;1.92;100.00;97943.63;4990906;28;20512;-73
2022/01/08 09:13:34;;;;;;;6.50;3.30;;;1.20;99.90;;;1.97;100.00;97946.63;4988123;28;20452;-73
2022/01/08 09:16:04;;;;;;;9.10;4.03;;;1.30;99.90;;;2.00;100.00;97944.59;4991679;28;20571;-74
2022/01/08 09:18:34;;;;;;;9.60;4.53;;;1.40;99.90;;;2.05;100.00;97944.16;4989466;28;20466;-73
2022/01/08 09:21:05;;;;;;;14.90;3.87;;;1.40;99.90;;;2.09;100.00;97940.38;4989238;28;20480;-75
2022/01/08 09:23:38;;;;;;;7.60;4.30;;;1.40;99.90;;;2.15;100.00;97937.25;4971341;28;20483;-73
2022/01/08 09:26:08;;;;;;;7.27;3.73;;;1.50;99.90;;;2.19;100.00;97930.03;4971036;28;20451;-74
2022/01/08 09:28:39;;;;;;;9.00;3.77;;;1.50;99.90;;;2.18;100.00;97934.41;4968146;28;20454;-73
2022/01/08 09:31:08;;;;;;;8.77;3.53;;;1.50;99.90;;;2.20;100.00;97927.34;4967396;28;20969;-73
2022/01/08 09:33:39;;;;;;;6.40;3.50;;;1.50;99.90;;;2.26;100.00;97931.13;4955742;28;20523;-73
2022/01/08 09:36:09;;;;;;;7.43;3.70;;;1.50;99.90;;;2.31;100.00;97923.78;4958240;28;20502;-73
2022/01/08 09:38:39;;;;;;;7.30;4.63;;;1.60;99.90;;;2.34;100.00;97931.25;4955498;28;20943;-73
2022/01/08 09:41:09;;;;;;;7.53;4.27;;;1.60;99.90;;;2.37;100.00;97934.38;4956783;28;20456;-74
2022/01/08 09:43:39;;;;;;;6.30;3.60;;;1.70;99.90;;;2.41;100.00;97933.13;4957418;28;20967;-74
2022/01/08 09:46:09;;;;;;;5.37;2.97;;;1.80;99.90;;;2.44;100.00;97937.19;4957085;28;20447;-73
2022/01/08 09:48:39;;;;;;;4.77;3.50;;;1.80;99.90;;;2.46;100.00;97932.72;4957801;28;20562;-74
2022/01/08 09:51:10;;;;;;;7.43;3.47;;;1.80;99.90;;;2.46;100.00;97927.56;4958499;28;20949;-73
2022/01/08 09:53:43;;;;;;;9.73;3.70;;;1.90;99.90;;;2.51;100.00;97931.34;4956862;28;20988;-74
2022/01/08 09:56:12;;;;;;;9.63;3.87;;;2.00;99.90;;;2.50;100.00;97932.28;4960618;28;20519;-73
2022/01/08 09:58:43;;;;;;;4.40;3.20;;;2.00;99.90;;;2.51;100.00;97933.94;4954287;28;20869;-73
2022/01/08 10:01:27;;;;;;;7.37;3.40;;;2.00;99.90;;;2.53;100.00;97939.75;4953437;28;20957;-73
2022/01/08 10:03:58;;;;;;;11.40;4.07;;;1.90;99.90;;;2.52;100.00;97927.81;4957261;28;20455;-74
2022/01/08 10:06:30;;;;;;;16.73;3.83;;;1.90;99.90;;;2.58;100.00;97931.59;4955176;28;20504;-73
2022/01/08 10:09:01;;;;;;;6.17;2.90;;;2.00;99.90;;;2.61;100.00;97930.50;4954802;28;20524;-73
2022/01/08 10:11:31;;;;;;;7.47;3.23;;;2.10;99.90;;;2.59;100.00;97928.06;4955359;28;20468;-74
2022/01/08 10:14:06;;;;;;;5.00;3.07;;;2.00;99.90;;;2.60;100.00;97928.91;4961636;28;20479;-73
2022/01/08 10:19:33;;;;;;;7.03;2.87;;;2.20;99.90;;;2.62;100.00;97911.50;4971519;28;20464;-74
2022/01/08 10:22:02;;;;;;;2.50;2.30;;;2.10;99.90;;;2.65;100.00;97911.22;4977796;28;20481;-74
2022/01/08 10:24:32;;;;;;;3.63;2.63;;;2.10;99.90;;;2.67;100.00;97910.13;4990802;28;21137;-73
2022/01/08 10:27:07;;;;;;;3.80;2.43;;;2.10;99.90;;;2.73;100.00;97909.56;4990017;28;20851;-73
2022/01/08 10:29:37;;;;;;;10.40;3.17;;;2.20;99.90;;;2.68;100.00;97905.75;4990425;28;20487;-73
2022/01/08 10:32:11;;;;;;;4.57;2.60;;;2.20;99.90;;;2.69;100.00;97907.41;4989699;28;20471;-73
2022/01/08 10:34:49;;;;;;;3.30;2.60;;;2.10;99.90;;;2.73;100.00;97908.75;4989550;28;20538;-74
2022/01/08 10:37:19;;;;;;;3.20;2.80;;;2.20;99.90;;;2.78;100.00;97906.53;4990272;28;20447;-74
2022/01/08 10:39:56;;;;;;;9.17;2.60;;;2.20;99.90;;;2.82;100.00;97907.88;4990848;28;20448;-74
2022/01/08 10:42:26;;;;;;;4.97;2.70;;;2.30;99.90;;;2.82;100.00;97905.31;4989395;28;20512;-74
2022/01/08 10:44:56;;;;;;;3.30;2.50;;;2.20;99.90;;;2.86;100.00;97896.31;4990721;28;20450;-73
2022/01/08 10:47:26;;;;;;;3.60;2.10;;;2.20;99.90;;;2.85;100.00;97897.28;4985054;28;20475;-74
2022/01/08 10:50:02;;;;;;;4.93;3.10;;;2.20;99.90;;;2.85;100.00;97889.53;4990332;28;20817;-74
2022/01/08 10:52:44;;;;;;;5.60;2.17;;;2.20;99.90;;;2.84;100.00;97880.19;4992816;28;20455;-74
2022/01/08 10:55:30;;;;;;;4.90;2.40;;;2.20;99.90;;;2.89;100.00;97877.97;4992197;28;20526;-73
2022/01/08 10:58:00;;;;;;;6.00;2.70;;;2.30;99.90;;;2.91;100.00;97871.72;4993531;28;20462;-73